createdAt,value
2018-02-19T00:00:49.116Z,1013.46
2018-02-19T00:01:49.087Z,1013.46
2018-02-19T00:02:49.159Z,1013.52
2018-02-19T00:03:49.182Z,1013.48
2018-02-19T00:04:49.246Z,1013.51
2018-02-19T00:05:49.102Z,1013.48
2018-02-19T00:06:49.194Z,1013.43
2018-02-19T00:07:49.166Z,1013.38
2018-02-19T00:08:49.225Z,1013.37
2018-02-19T00:09:49.106Z,1013.39
2018-02-19T00:10:49.197Z,1013.37
2018-02-19T00:11:49.224Z,1013.37
2018-02-19T00:12:49.210Z,1013.35
2018-02-19T00:13:49.183Z,1013.37
2018-02-19T00:14:49.157Z,1013.34
2018-02-19T00:15:49.249Z,1013.30
2018-02-19T00:16:49.164Z,1013.35
2018-02-19T00:17:49.219Z,1013.32
2018-02-19T00:18:49.112Z,1013.30
2018-02-19T00:19:49.253Z,1013.27
2018-02-19T00:20:49.192Z,1013.30
2018-02-19T00:21:49.174Z,1013.27
2018-02-19T00:22:49.133Z,1013.28
2018-02-19T00:23:49.205Z,1013.25
2018-02-19T00:24:49.192Z,1013.25
2018-02-19T00:25:49.164Z,1013.24
2018-02-19T00:26:49.257Z,1013.25
2018-02-19T00:27:49.122Z,1013.22
2018-02-19T00:28:49.235Z,1013.24
2018-02-19T00:29:49.223Z,1013.22
2018-02-19T00:30:49.195Z,1013.23
2018-02-19T00:31:49.166Z,1013.20
2018-02-19T00:32:49.118Z,1013.16
2018-02-19T00:33:49.329Z,1013.17
2018-02-19T00:34:49.198Z,1013.14
2018-02-19T00:35:49.169Z,1013.12
2018-02-19T00:36:49.222Z,1013.10
2018-02-19T00:37:49.174Z,1013.07
2018-02-19T00:38:49.200Z,1013.09
2018-02-19T00:39:49.232Z,1013.08
2018-02-19T00:40:49.138Z,1013.03
2018-02-19T00:41:49.208Z,1013.01
2018-02-19T00:42:49.216Z,1013.02
2018-02-19T00:43:49.150Z,1013.02
2018-02-19T00:44:49.141Z,1012.96
2018-02-19T00:45:49.218Z,1012.95
2018-02-19T00:46:49.143Z,1012.94
2018-02-19T00:47:49.203Z,1012.99
2018-02-19T00:48:49.154Z,1012.94
2018-02-19T00:49:49.141Z,1012.91
2018-02-19T00:50:49.143Z,1012.90
2018-02-19T00:51:49.214Z,1012.89
2018-02-19T00:52:49.140Z,1012.83
2018-02-19T00:53:49.221Z,1012.86
2018-02-19T00:54:49.162Z,1012.79
2018-02-19T00:55:49.225Z,1012.77
2018-02-19T00:56:49.160Z,1012.74
2018-02-19T00:57:49.102Z,1012.76
2018-02-19T00:58:49.222Z,1012.78
2018-02-19T00:59:49.222Z,1012.76
2018-02-19T01:01:49.211Z,1012.81
2018-02-19T01:02:49.143Z,1012.79
2018-02-19T01:03:49.211Z,1012.84
2018-02-19T01:04:49.141Z,1012.88
2018-02-19T01:05:49.219Z,1012.87
2018-02-19T01:06:49.146Z,1012.86
2018-02-19T01:07:49.214Z,1012.83
2018-02-19T01:08:49.143Z,1012.83
2018-02-19T01:09:49.217Z,1012.85
2018-02-19T01:10:49.160Z,1012.79
2018-02-19T01:11:49.195Z,1012.81
2018-02-19T01:12:49.143Z,1012.79
2018-02-19T01:13:49.185Z,1012.77
2018-02-19T01:14:49.224Z,1012.76
2018-02-19T01:15:49.191Z,1012.83
2018-02-19T01:16:49.196Z,1012.76
2018-02-19T01:17:49.144Z,1012.79
2018-02-19T01:18:49.149Z,1012.79
2018-02-19T01:19:49.197Z,1012.79
2018-02-19T01:20:49.157Z,1012.79
2018-02-19T01:21:49.226Z,1012.81
2018-02-19T01:22:49.155Z,1012.81
2018-02-19T01:23:49.223Z,1012.78
2018-02-19T01:24:49.157Z,1012.83
2018-02-19T01:25:49.225Z,1012.80
2018-02-19T01:26:49.158Z,1012.76
2018-02-19T01:27:49.252Z,1012.72
2018-02-19T01:28:49.153Z,1012.73
2018-02-19T01:29:49.229Z,1012.65
2018-02-19T01:30:49.219Z,1012.69
2018-02-19T01:31:49.110Z,1012.72
2018-02-19T01:32:49.167Z,1012.72
2018-02-19T01:33:49.180Z,1012.69
2018-02-19T01:34:49.171Z,1012.66
2018-02-19T01:35:49.228Z,1012.64
2018-02-19T01:36:49.156Z,1012.64
2018-02-19T01:37:49.200Z,1012.66
2018-02-19T01:38:49.224Z,1012.67
2018-02-19T01:39:49.114Z,1012.70
2018-02-19T01:40:49.244Z,1012.65
2018-02-19T01:41:49.211Z,1012.72
2018-02-19T01:42:49.243Z,1012.74
2018-02-19T01:43:49.167Z,1012.71
2018-02-19T01:44:49.144Z,1012.64
2018-02-19T01:45:49.213Z,1012.61
2018-02-19T01:46:49.210Z,1012.56
2018-02-19T01:47:49.206Z,1012.56
2018-02-19T01:48:49.218Z,1012.53
2018-02-19T01:49:49.250Z,1012.55
2018-02-19T01:50:49.209Z,1012.53
2018-02-19T01:51:49.204Z,1012.51
2018-02-19T01:52:49.193Z,1012.50
2018-02-19T01:53:49.180Z,1012.49
2018-02-19T01:54:49.259Z,1012.49
2018-02-19T01:55:49.184Z,1012.49
2018-02-19T01:56:49.155Z,1012.47
2018-02-19T01:57:49.258Z,1012.45
2018-02-19T01:58:49.185Z,1012.44
2018-02-19T01:59:49.141Z,1012.44
2018-02-19T02:00:49.256Z,1012.42
2018-02-19T02:01:49.253Z,1012.44
2018-02-19T02:02:49.276Z,1012.36
2018-02-19T02:03:49.276Z,1012.39
2018-02-19T02:04:49.277Z,1012.41
2018-02-19T02:05:49.231Z,1012.37
2018-02-19T02:06:49.281Z,1012.31
2018-02-19T02:07:49.174Z,1012.33
2018-02-19T02:08:49.237Z,1012.31
2018-02-19T02:09:49.284Z,1012.29
2018-02-19T02:10:49.194Z,1012.28
2018-02-19T02:11:49.158Z,1012.23
2018-02-19T02:12:49.190Z,1012.24
2018-02-19T02:13:49.138Z,1012.26
2018-02-19T02:14:49.160Z,1012.22
2018-02-19T02:15:49.133Z,1012.22
2018-02-19T02:16:49.156Z,1012.19
2018-02-19T02:17:49.151Z,1012.22
2018-02-19T02:18:49.177Z,1012.19
2018-02-19T02:19:49.240Z,1012.16
2018-02-19T02:20:49.167Z,1012.12
2018-02-19T02:21:49.192Z,1012.12
2018-02-19T02:22:49.245Z,1012.13
2018-02-19T02:23:49.186Z,1012.11
2018-02-19T02:24:49.303Z,1012.14
2018-02-19T02:25:49.306Z,1012.09
2018-02-19T02:26:49.289Z,1012.10
2018-02-19T02:27:49.167Z,1012.09
2018-02-19T02:28:49.270Z,1012.08
2018-02-19T02:29:49.234Z,1012.05
2018-02-19T02:30:49.262Z,1012.03
2018-02-19T02:31:49.266Z,1011.99
2018-02-19T02:32:49.193Z,1012.00
2018-02-19T02:33:49.268Z,1011.98
2018-02-19T02:34:49.192Z,1011.96
2018-02-19T02:35:49.305Z,1011.91
2018-02-19T02:36:49.200Z,1011.93
2018-02-19T02:37:49.267Z,1011.95
2018-02-19T02:38:49.198Z,1011.90
2018-02-19T02:39:49.270Z,1011.93
2018-02-19T02:40:49.182Z,1011.88
2018-02-19T02:41:49.286Z,1011.90
2018-02-19T02:42:49.200Z,1011.89
2018-02-19T02:43:49.278Z,1011.90
2018-02-19T02:44:49.341Z,1011.88
2018-02-19T02:45:49.287Z,1011.88
2018-02-19T02:46:49.302Z,1011.87
2018-02-19T02:47:49.278Z,1011.88
2018-02-19T02:48:49.317Z,1011.88
2018-02-19T02:49:49.185Z,1011.85
2018-02-19T02:50:49.202Z,1011.82
2018-02-19T02:51:49.276Z,1011.85
2018-02-19T02:52:49.210Z,1011.83
2018-02-19T02:53:49.276Z,1011.83
2018-02-19T02:54:49.210Z,1011.81
2018-02-19T02:55:49.281Z,1011.80
2018-02-19T02:56:49.210Z,1011.78
2018-02-19T02:57:49.279Z,1011.81
2018-02-19T02:58:49.208Z,1011.75
2018-02-19T02:59:49.286Z,1011.79
2018-02-19T03:00:49.225Z,1011.74
2018-02-19T03:01:49.329Z,1011.76
2018-02-19T03:02:49.342Z,1011.71
2018-02-19T03:03:49.351Z,1011.70
2018-02-19T03:04:49.320Z,1011.76
2018-02-19T03:05:49.352Z,1011.74
2018-02-19T03:06:49.251Z,1011.71
2018-02-19T03:07:49.297Z,1011.74
2018-02-19T03:08:49.218Z,1011.72
2018-02-19T03:09:49.256Z,1011.71
2018-02-19T03:10:49.299Z,1011.71
2018-02-19T03:11:49.294Z,1011.78
2018-02-19T03:12:49.214Z,1011.74
2018-02-19T03:13:49.337Z,1011.73
2018-02-19T03:14:49.330Z,1011.70
2018-02-19T03:15:49.357Z,1011.72
2018-02-19T03:16:49.332Z,1011.69
2018-02-19T03:17:49.321Z,1011.68
2018-02-19T03:18:49.306Z,1011.68
2018-02-19T03:19:49.337Z,1011.70
2018-02-19T03:20:49.172Z,1011.70
2018-02-19T03:21:49.194Z,1011.71
2018-02-19T03:22:49.242Z,1011.72
2018-02-19T03:23:49.286Z,1011.71
2018-02-19T03:24:49.239Z,1011.70
2018-02-19T03:25:49.287Z,1011.70
2018-02-19T03:26:49.283Z,1011.70
2018-02-19T03:27:49.179Z,1011.71
2018-02-19T03:28:49.175Z,1011.71
2018-02-19T03:29:49.234Z,1011.75
2018-02-19T03:30:49.302Z,1011.74
2018-02-19T03:31:49.235Z,1011.71
2018-02-19T03:32:49.261Z,1011.70
2018-02-19T03:33:49.322Z,1011.69
2018-02-19T03:34:49.232Z,1011.70
2018-02-19T03:35:49.306Z,1011.69
2018-02-19T03:36:49.231Z,1011.68
2018-02-19T03:37:49.303Z,1011.68
2018-02-19T03:38:49.262Z,1011.66
2018-02-19T03:39:49.305Z,1011.64
2018-02-19T03:40:49.292Z,1011.64
2018-02-19T03:41:49.369Z,1011.62
2018-02-19T03:42:49.346Z,1011.61
2018-02-19T03:43:49.352Z,1011.63
2018-02-19T03:44:49.241Z,1011.61
2018-02-19T03:45:49.218Z,1011.62
2018-02-19T03:46:49.232Z,1011.62
2018-02-19T03:47:49.252Z,1011.61
2018-02-19T03:48:49.326Z,1011.60
2018-02-19T03:49:49.235Z,1011.60
2018-02-19T03:50:49.321Z,1011.55
2018-02-19T03:51:49.241Z,1011.54
2018-02-19T03:52:49.361Z,1011.57
2018-02-19T03:53:49.317Z,1011.51
2018-02-19T03:54:49.333Z,1011.51
2018-02-19T03:55:49.359Z,1011.50
2018-02-19T03:56:49.335Z,1011.46
2018-02-19T03:57:49.298Z,1011.47
2018-02-19T03:58:49.326Z,1011.49
2018-02-19T03:59:49.360Z,1011.51
2018-02-19T04:00:49.245Z,1011.49
2018-02-19T04:01:49.317Z,1011.50
2018-02-19T04:02:49.317Z,1011.47
2018-02-19T04:03:49.244Z,1011.44
2018-02-19T04:04:49.320Z,1011.45
2018-02-19T04:05:49.254Z,1011.41
2018-02-19T04:06:49.324Z,1011.51
2018-02-19T04:07:49.322Z,1011.50
2018-02-19T04:08:49.252Z,1011.42
2018-02-19T04:09:49.323Z,1011.44
2018-02-19T04:10:49.269Z,1011.41
2018-02-19T04:11:49.231Z,1011.45
2018-02-19T04:12:49.298Z,1011.45
2018-02-19T04:13:49.233Z,1011.45
2018-02-19T04:14:49.331Z,1011.39
2018-02-19T04:15:49.309Z,1011.44
2018-02-19T04:16:49.249Z,1011.42
2018-02-19T04:17:49.239Z,1011.40
2018-02-19T04:18:49.368Z,1011.40
2018-02-19T04:19:49.250Z,1011.34
2018-02-19T04:20:49.372Z,1011.37
2018-02-19T04:21:49.316Z,1011.41
2018-02-19T04:22:49.309Z,1011.36
2018-02-19T04:23:49.278Z,1011.33
2018-02-19T04:24:49.359Z,1011.36
2018-02-19T04:25:49.310Z,1011.32
2018-02-19T04:26:49.341Z,1011.27
2018-02-19T04:27:49.341Z,1011.28
2018-02-19T04:28:49.246Z,1011.31
2018-02-19T04:29:49.365Z,1011.26
2018-02-19T04:30:49.270Z,1011.28
2018-02-19T04:31:49.337Z,1011.25
2018-02-19T04:32:49.267Z,1011.24
2018-02-19T04:33:49.336Z,1011.26
2018-02-19T04:34:49.269Z,1011.25
2018-02-19T04:35:49.338Z,1011.26
2018-02-19T04:36:49.272Z,1011.23
2018-02-19T04:37:49.340Z,1011.25
2018-02-19T04:38:49.273Z,1011.21
2018-02-19T04:39:49.340Z,1011.19
2018-02-19T04:41:49.278Z,1011.15
2018-02-19T04:42:49.360Z,1011.15
2018-02-19T04:43:49.354Z,1011.17
2018-02-19T04:44:49.301Z,1011.14
2018-02-19T04:45:49.283Z,1011.14
2018-02-19T04:46:49.360Z,1011.14
2018-02-19T04:47:49.255Z,1011.07
2018-02-19T04:48:49.288Z,1011.09
2018-02-19T04:49:49.360Z,1011.08
2018-02-19T04:50:49.349Z,1011.07
2018-02-19T04:51:49.288Z,1011.05
2018-02-19T04:52:49.363Z,1011.00
2018-02-19T04:53:49.319Z,1010.98
2018-02-19T04:54:49.356Z,1010.98
2018-02-19T04:55:49.321Z,1010.99
2018-02-19T04:56:49.364Z,1011.02
2018-02-19T04:57:49.290Z,1011.03
2018-02-19T04:58:49.366Z,1010.98
2018-02-19T04:59:49.360Z,1010.96
2018-02-19T05:00:49.369Z,1010.98
2018-02-19T05:01:49.298Z,1010.93
2018-02-19T05:02:49.291Z,1010.94
2018-02-19T05:03:49.364Z,1010.96
2018-02-19T05:04:49.297Z,1010.98
2018-02-19T05:05:49.378Z,1011.03
2018-02-19T05:06:49.373Z,1011.00
2018-02-19T05:07:49.371Z,1010.98
2018-02-19T05:09:49.367Z,1011.00
2018-02-19T05:10:49.373Z,1011.02
2018-02-19T05:11:49.296Z,1011.03
2018-02-19T05:12:49.370Z,1010.99
2018-02-19T05:13:49.298Z,1010.99
2018-02-19T05:14:49.301Z,1011.00
2018-02-19T05:15:49.375Z,1011.02
2018-02-19T05:16:49.367Z,1011.00
2018-02-19T05:17:49.376Z,1011.03
2018-02-19T05:18:49.302Z,1011.03
2018-02-19T05:19:49.305Z,1010.98
2018-02-19T05:20:49.339Z,1011.00
2018-02-19T05:21:49.411Z,1010.98
2018-02-19T05:22:49.293Z,1010.97
2018-02-19T05:23:49.341Z,1010.96
2018-02-19T05:24:49.340Z,1010.96
2018-02-19T05:25:49.373Z,1010.98
2018-02-19T05:26:49.374Z,1010.95
2018-02-19T05:27:49.417Z,1010.93
2018-02-19T05:28:49.388Z,1010.91
2018-02-19T05:29:49.280Z,1010.96
2018-02-19T05:30:49.343Z,1010.91
2018-02-19T05:31:49.409Z,1010.91
2018-02-19T05:32:49.351Z,1010.94
2018-02-19T05:33:49.396Z,1010.88
2018-02-19T05:34:49.407Z,1010.93
2018-02-19T05:35:49.357Z,1010.89
2018-02-19T05:36:49.390Z,1010.90
2018-02-19T05:37:49.444Z,1010.92
2018-02-19T05:38:49.316Z,1010.91
2018-02-19T05:39:49.352Z,1010.92
2018-02-19T05:40:49.349Z,1010.89
2018-02-19T05:41:49.309Z,1010.90
2018-02-19T05:42:49.316Z,1010.84
2018-02-19T05:43:49.390Z,1010.87
2018-02-19T05:44:49.427Z,1010.86
2018-02-19T05:45:49.365Z,1010.85
2018-02-19T05:46:49.369Z,1010.90
2018-02-19T05:47:49.402Z,1010.91
2018-02-19T05:48:49.389Z,1010.87
2018-02-19T05:49:49.391Z,1010.88
2018-02-19T05:50:49.294Z,1010.86
2018-02-19T05:51:49.351Z,1010.85
2018-02-19T05:52:49.454Z,1010.87
2018-02-19T05:53:49.457Z,1010.87
2018-02-19T05:54:49.425Z,1010.87
2018-02-19T05:55:49.357Z,1010.80
2018-02-19T05:56:49.459Z,1010.80
2018-02-19T05:57:49.373Z,1010.80
2018-02-19T05:58:49.416Z,1010.81
2018-02-19T05:59:49.316Z,1010.80
2018-02-19T06:00:49.360Z,1010.80
2018-02-19T06:01:49.427Z,1010.81
2018-02-19T06:02:49.316Z,1010.81
2018-02-19T06:03:49.336Z,1010.85
2018-02-19T06:04:49.323Z,1010.84
2018-02-19T06:05:49.428Z,1010.88
2018-02-19T06:06:49.335Z,1010.91
2018-02-19T06:07:49.317Z,1010.88
2018-02-19T06:08:49.305Z,1010.89
2018-02-19T06:09:49.428Z,1010.85
2018-02-19T06:10:49.307Z,1010.86
2018-02-19T06:11:49.382Z,1010.85
2018-02-19T06:12:49.322Z,1010.91
2018-02-19T06:13:49.385Z,1010.89
2018-02-19T06:14:49.385Z,1010.92
2018-02-19T06:15:49.381Z,1010.96
2018-02-19T06:16:49.346Z,1010.94
2018-02-19T06:17:49.390Z,1010.98
2018-02-19T06:18:49.343Z,1011.00
2018-02-19T06:19:49.354Z,1010.98
2018-02-19T06:20:49.331Z,1010.99
2018-02-19T06:21:49.403Z,1010.96
2018-02-19T06:22:49.404Z,1010.97
2018-02-19T06:23:49.354Z,1010.98
2018-02-19T06:24:49.407Z,1010.92
2018-02-19T06:25:49.337Z,1010.91
2018-02-19T06:26:49.339Z,1010.93
2018-02-19T06:27:49.407Z,1010.90
2018-02-19T06:28:49.343Z,1010.93
2018-02-19T06:29:49.412Z,1010.95
2018-02-19T06:30:49.348Z,1010.92
2018-02-19T06:31:49.425Z,1010.92
2018-02-19T06:32:49.425Z,1010.94
2018-02-19T06:33:49.377Z,1010.94
2018-02-19T06:34:49.425Z,1010.94
2018-02-19T06:35:49.349Z,1010.95
2018-02-19T06:36:49.353Z,1010.96
2018-02-19T06:37:49.354Z,1010.98
2018-02-19T06:38:49.426Z,1010.98
2018-02-19T06:39:49.430Z,1010.97
2018-02-19T06:40:49.422Z,1011.03
2018-02-19T06:41:49.347Z,1011.01
2018-02-19T06:42:49.418Z,1011.03
2018-02-19T06:43:49.348Z,1011.02
2018-02-19T06:44:49.417Z,1010.96
2018-02-19T06:45:49.387Z,1011.03
2018-02-19T06:46:49.354Z,1011.05
2018-02-19T06:47:49.423Z,1011.04
2018-02-19T06:48:49.350Z,1011.00
2018-02-19T06:49:49.424Z,1011.01
2018-02-19T06:50:49.381Z,1011.04
2018-02-19T06:51:49.456Z,1011.02
2018-02-19T06:52:49.480Z,1011.05
2018-02-19T06:53:49.454Z,1011.05
2018-02-19T06:54:49.455Z,1011.04
2018-02-19T06:55:49.406Z,1011.06
2018-02-19T06:56:49.369Z,1011.08
2018-02-19T06:57:49.368Z,1011.12
2018-02-19T06:58:49.388Z,1011.12
2018-02-19T06:59:49.452Z,1011.10
2018-02-19T07:00:49.354Z,1011.16
2018-02-19T07:01:49.357Z,1011.11
2018-02-19T07:02:49.388Z,1011.13
2018-02-19T07:03:49.430Z,1011.14
2018-02-19T07:04:49.425Z,1011.11
2018-02-19T07:05:49.382Z,1011.12
2018-02-19T07:06:49.313Z,1011.11
2018-02-19T07:07:49.429Z,1011.13
2018-02-19T07:08:49.425Z,1011.12
2018-02-19T07:09:49.322Z,1011.10
2018-02-19T07:10:49.437Z,1011.16
2018-02-19T07:11:49.441Z,1011.17
2018-02-19T07:12:49.446Z,1011.17
2018-02-19T07:13:49.465Z,1011.15
2018-02-19T07:14:49.362Z,1011.17
2018-02-19T07:15:49.465Z,1011.22
2018-02-19T07:16:49.409Z,1011.21
2018-02-19T07:17:49.477Z,1011.19
2018-02-19T07:18:49.345Z,1011.21
2018-02-19T07:19:49.479Z,1011.21
2018-02-19T07:20:49.470Z,1011.20
2018-02-19T07:21:49.413Z,1011.18
2018-02-19T07:22:49.410Z,1011.19
2018-02-19T07:23:49.445Z,1011.24
2018-02-19T07:24:49.484Z,1011.22
2018-02-19T07:25:49.477Z,1011.20
2018-02-19T07:26:49.413Z,1011.23
2018-02-19T07:27:49.368Z,1011.21
2018-02-19T07:28:49.421Z,1011.21
2018-02-19T07:29:49.488Z,1011.14
2018-02-19T07:30:49.450Z,1011.19
2018-02-19T07:31:49.428Z,1011.19
2018-02-19T07:32:49.477Z,1011.17
2018-02-19T07:33:49.461Z,1011.15
2018-02-19T07:34:49.468Z,1011.21
2018-02-19T07:35:49.491Z,1011.17
2018-02-19T07:36:49.359Z,1011.18
2018-02-19T07:37:49.382Z,1011.20
2018-02-19T07:38:49.413Z,1011.18
2018-02-19T07:39:49.489Z,1011.20
2018-02-19T07:40:49.487Z,1011.20
2018-02-19T07:41:49.426Z,1011.16
2018-02-19T07:42:49.494Z,1011.20
2018-02-19T07:43:49.398Z,1011.18
2018-02-19T07:44:49.418Z,1011.13
2018-02-19T07:45:49.490Z,1011.09
2018-02-19T07:46:49.489Z,1011.09
2018-02-19T07:47:49.474Z,1011.09
2018-02-19T07:48:49.488Z,1011.04
2018-02-19T07:49:49.431Z,1011.05
2018-02-19T07:50:49.364Z,1011.05
2018-02-19T07:51:49.420Z,1010.98
2018-02-19T07:52:49.338Z,1011.02
2018-02-19T07:53:49.399Z,1010.98
2018-02-19T07:54:49.460Z,1010.96
2018-02-19T07:55:49.424Z,1010.97
2018-02-19T07:56:49.455Z,1010.97
2018-02-19T07:57:49.384Z,1010.92
2018-02-19T07:58:49.386Z,1010.92
2018-02-19T07:59:49.426Z,1010.93
2018-02-19T08:00:49.459Z,1010.89
2018-02-19T08:01:49.472Z,1010.88
2018-02-19T08:02:49.389Z,1010.81
2018-02-19T08:03:49.398Z,1010.82
2018-02-19T08:04:49.511Z,1010.81
2018-02-19T08:05:49.451Z,1010.79
2018-02-19T08:06:49.448Z,1010.82
2018-02-19T08:07:49.531Z,1010.82
2018-02-19T08:08:49.495Z,1010.81
2018-02-19T08:09:49.532Z,1010.85
2018-02-19T08:10:49.411Z,1010.84
2018-02-19T08:11:49.389Z,1010.82
2018-02-19T08:12:49.511Z,1010.86
2018-02-19T08:13:49.474Z,1010.91
2018-02-19T08:14:49.440Z,1010.86
2018-02-19T08:15:49.392Z,1010.78
2018-02-19T08:16:49.477Z,1010.75
2018-02-19T08:17:49.455Z,1010.76
2018-02-19T08:18:49.401Z,1010.70
2018-02-19T08:19:49.393Z,1010.67
2018-02-19T08:20:49.486Z,1010.66
2018-02-19T08:21:49.395Z,1010.62
2018-02-19T08:22:49.475Z,1010.68
2018-02-19T08:23:49.425Z,1010.63
2018-02-19T08:24:49.474Z,1010.61
2018-02-19T08:25:49.402Z,1010.63
2018-02-19T08:26:49.476Z,1010.62
2018-02-19T08:27:49.502Z,1010.59
2018-02-19T08:28:49.502Z,1010.60
2018-02-19T08:29:49.403Z,1010.56
2018-02-19T08:30:49.480Z,1010.56
2018-02-19T08:31:49.363Z,1010.54
2018-02-19T08:32:49.476Z,1010.53
2018-02-19T08:33:49.484Z,1010.52
2018-02-19T08:34:49.391Z,1010.53
2018-02-19T08:35:49.480Z,1010.56
2018-02-19T08:36:49.449Z,1010.54
2018-02-19T08:37:49.396Z,1010.53
2018-02-19T08:38:49.407Z,1010.51
2018-02-19T08:39:49.451Z,1010.52
2018-02-19T08:40:49.480Z,1010.49
2018-02-19T08:41:49.495Z,1010.47
2018-02-19T08:42:49.423Z,1010.52
2018-02-19T08:43:49.519Z,1010.51
2018-02-19T08:44:49.424Z,1010.52
2018-02-19T08:45:49.502Z,1010.47
2018-02-19T08:46:49.501Z,1010.48
2018-02-19T08:47:49.427Z,1010.51
2018-02-19T08:48:49.427Z,1010.53
2018-02-19T08:49:49.501Z,1010.57
2018-02-19T08:50:49.426Z,1010.50
2018-02-19T08:51:49.504Z,1010.50
2018-02-19T08:52:49.430Z,1010.50
2018-02-19T08:53:49.429Z,1010.47
2018-02-19T08:54:49.446Z,1010.46
2018-02-19T08:55:49.433Z,1010.49
2018-02-19T08:56:49.511Z,1010.49
2018-02-19T08:57:49.506Z,1010.46
2018-02-19T08:58:49.434Z,1010.49
2018-02-19T08:59:49.512Z,1010.47
2018-02-19T09:00:49.505Z,1010.43
2018-02-19T09:01:49.423Z,1010.48
2018-02-19T09:02:49.501Z,1010.49
2018-02-19T09:03:49.465Z,1010.47
2018-02-19T09:04:49.500Z,1010.47
2018-02-19T09:05:49.518Z,1010.45
2018-02-19T09:06:49.513Z,1010.49
2018-02-19T09:07:49.483Z,1010.45
2018-02-19T09:08:49.503Z,1010.42
2018-02-19T09:09:49.464Z,1010.42
2018-02-19T09:10:49.508Z,1010.42
2018-02-19T09:11:49.440Z,1010.35
2018-02-19T09:12:49.445Z,1010.40
2018-02-19T09:13:49.515Z,1010.36
2018-02-19T09:14:49.448Z,1010.34
2018-02-19T09:15:49.515Z,1010.34
2018-02-19T09:16:49.445Z,1010.34
2018-02-19T09:17:49.516Z,1010.31
2018-02-19T09:18:49.475Z,1010.30
2018-02-19T09:19:49.516Z,1010.26
2018-02-19T09:20:49.470Z,1010.29
2018-02-19T09:21:49.488Z,1010.20
2018-02-19T09:22:49.457Z,1010.23
2018-02-19T09:23:49.458Z,1010.22
2018-02-19T09:24:49.524Z,1010.19
2018-02-19T09:25:49.420Z,1010.16
2018-02-19T09:26:49.479Z,1010.22
2018-02-19T09:27:49.525Z,1010.19
2018-02-19T09:28:49.546Z,1010.21
2018-02-19T09:29:49.530Z,1010.18
2018-02-19T09:30:49.491Z,1010.20
2018-02-19T09:31:49.501Z,1010.18
2018-02-19T09:32:49.520Z,1010.14
2018-02-19T09:33:49.465Z,1010.16
2018-02-19T09:34:49.530Z,1010.20
2018-02-19T09:35:49.523Z,1010.18
2018-02-19T09:36:49.486Z,1010.18
2018-02-19T09:37:49.549Z,1010.19
2018-02-19T09:38:49.549Z,1010.15
2018-02-19T09:39:49.434Z,1010.14
2018-02-19T09:40:49.502Z,1010.12
2018-02-19T09:41:49.546Z,1010.14
2018-02-19T09:42:49.552Z,1010.11
2018-02-19T09:43:49.446Z,1010.14
2018-02-19T09:44:49.556Z,1010.10
2018-02-19T09:45:49.491Z,1010.11
2018-02-19T09:46:49.546Z,1010.14
2018-02-19T09:47:49.510Z,1010.11
2018-02-19T09:48:49.563Z,1010.08
2018-02-19T09:49:49.531Z,1010.09
2018-02-19T09:50:49.536Z,1010.08
2018-02-19T09:51:49.449Z,1010.14
2018-02-19T09:52:49.441Z,1010.09
2018-02-19T09:53:49.500Z,1010.08
2018-02-19T09:54:49.534Z,1010.13
2018-02-19T09:55:49.502Z,1010.12
2018-02-19T09:56:49.536Z,1010.12
2018-02-19T09:57:49.502Z,1010.11
2018-02-19T09:58:49.535Z,1010.09
2018-02-19T09:59:49.546Z,1010.11
2018-02-19T10:00:49.516Z,1010.06
2018-02-19T10:01:49.524Z,1010.11
2018-02-19T10:02:49.448Z,1010.11
2018-02-19T10:03:49.571Z,1010.11
2018-02-19T10:04:49.564Z,1010.15
2018-02-19T10:05:49.562Z,1010.15
2018-02-19T10:06:49.463Z,1010.12
2018-02-19T10:07:49.547Z,1010.13
2018-02-19T10:08:49.449Z,1010.11
2018-02-19T10:09:49.544Z,1010.13
2018-02-19T10:10:49.602Z,1010.13
2018-02-19T10:11:49.519Z,1010.10
2018-02-19T10:12:49.581Z,1010.12
2018-02-19T10:13:49.553Z,1010.09
2018-02-19T10:14:49.525Z,1010.08
2018-02-19T10:15:49.520Z,1010.11
2018-02-19T10:16:49.512Z,1010.13
2018-02-19T10:17:49.609Z,1010.10
2018-02-19T10:18:49.547Z,1010.08
2018-02-19T10:19:49.525Z,1010.09
2018-02-19T10:20:49.584Z,1010.07
2018-02-19T10:21:49.457Z,1010.07
2018-02-19T10:22:49.478Z,1010.04
2018-02-19T10:23:49.459Z,1010.04
2018-02-19T10:24:49.455Z,1010.06
2018-02-19T10:25:49.547Z,1010.05
2018-02-19T10:26:49.507Z,1010.04
2018-02-19T10:27:49.509Z,1010.06
2018-02-19T10:28:49.441Z,1010.03
2018-02-19T10:29:49.512Z,1010.03
2018-02-19T10:30:49.423Z,1010.01
2018-02-19T10:31:49.444Z,1010.00
2018-02-19T10:32:49.489Z,1009.96
2018-02-19T10:33:49.556Z,1010.00
2018-02-19T10:34:49.545Z,1010.00
2018-02-19T10:35:49.546Z,1009.93
2018-02-19T10:36:49.553Z,1010.00
2018-02-19T10:37:49.435Z,1009.99
2018-02-19T10:38:49.547Z,1009.90
2018-02-19T10:39:49.484Z,1009.91
2018-02-19T10:40:49.487Z,1009.90
2018-02-19T10:41:49.535Z,1009.91
2018-02-19T10:42:49.566Z,1009.88
2018-02-19T10:43:49.499Z,1009.91
2018-02-19T10:44:49.626Z,1009.87
2018-02-19T10:45:49.573Z,1009.87
2018-02-19T10:46:49.570Z,1009.86
2018-02-19T10:47:49.573Z,1009.90
2018-02-19T10:48:49.499Z,1009.86
2018-02-19T10:49:49.536Z,1009.90
2018-02-19T10:50:49.629Z,1009.88
2018-02-19T10:51:49.571Z,1009.84
2018-02-19T10:52:49.579Z,1009.88
2018-02-19T10:53:49.499Z,1009.84
2018-02-19T10:54:49.574Z,1009.82
2018-02-19T10:55:49.509Z,1009.89
2018-02-19T10:56:49.469Z,1009.87
2018-02-19T10:57:49.509Z,1009.84
2018-02-19T10:58:49.577Z,1009.84
2018-02-19T10:59:49.504Z,1009.83
2018-02-19T11:00:49.507Z,1009.79
2018-02-19T11:01:49.575Z,1009.76
2018-02-19T11:02:49.620Z,1009.79
2018-02-19T11:03:49.582Z,1009.71
2018-02-19T11:04:49.484Z,1009.73
2018-02-19T11:05:49.497Z,1009.69
2018-02-19T11:06:49.610Z,1009.73
2018-02-19T11:07:49.589Z,1009.70
2018-02-19T11:08:49.584Z,1009.68
2018-02-19T11:09:49.557Z,1009.64
2018-02-19T11:10:49.547Z,1009.61
2018-02-19T11:11:49.519Z,1009.58
2018-02-19T11:12:49.516Z,1009.57
2018-02-19T11:13:49.516Z,1009.53
2018-02-19T11:14:49.587Z,1009.56
2018-02-19T11:15:49.589Z,1009.52
2018-02-19T11:16:49.516Z,1009.54
2018-02-19T11:17:49.683Z,1009.49
2018-02-19T11:18:49.591Z,1009.44
2018-02-19T11:19:49.589Z,1009.41
2018-02-19T11:20:49.587Z,1009.42
2018-02-19T11:21:49.557Z,1009.41
2018-02-19T11:22:49.568Z,1009.37
2018-02-19T11:23:49.619Z,1009.37
2018-02-19T11:24:49.611Z,1009.35
2018-02-19T11:25:49.525Z,1009.36
2018-02-19T11:26:49.565Z,1009.36
2018-02-19T11:27:49.619Z,1009.37
2018-02-19T11:28:49.590Z,1009.36
2018-02-19T11:29:49.608Z,1009.35
2018-02-19T11:30:49.493Z,1009.35
2018-02-19T11:31:49.526Z,1009.30
2018-02-19T11:32:49.525Z,1009.31
2018-02-19T11:33:49.598Z,1009.32
2018-02-19T11:34:49.527Z,1009.27
2018-02-19T11:35:49.538Z,1009.26
2018-02-19T11:36:49.601Z,1009.24
2018-02-19T11:37:49.533Z,1009.22
2018-02-19T11:38:55.379Z,1009.29
2018-02-19T11:39:49.563Z,1009.22
2018-02-19T11:40:49.531Z,1009.22
2018-02-19T11:41:49.576Z,1009.16
2018-02-19T11:42:49.604Z,1009.16
2018-02-19T11:43:49.540Z,1009.16
2018-02-19T11:44:49.640Z,1009.16
2018-02-19T11:45:49.628Z,1009.18
2018-02-19T11:46:49.538Z,1009.21
2018-02-19T11:47:49.519Z,1009.15
2018-02-19T11:48:49.602Z,1009.13
2018-02-19T11:49:49.514Z,1009.08
2018-02-19T11:50:49.550Z,1009.10
2018-02-19T11:51:49.635Z,1009.08
2018-02-19T11:52:49.640Z,1009.04
2018-02-19T11:53:49.513Z,1009.08
2018-02-19T11:54:49.523Z,1009.09
2018-02-19T11:55:49.646Z,1009.08
2018-02-19T11:56:49.649Z,1009.06
2018-02-19T11:57:49.582Z,1009.06
2018-02-19T11:58:49.550Z,1009.08
2018-02-19T11:59:49.630Z,1009.10
2018-02-19T12:00:49.552Z,1009.10
2018-02-19T12:01:49.551Z,1009.08
2018-02-19T12:02:49.652Z,1009.08
2018-02-19T12:03:49.576Z,1009.11
2018-02-19T12:04:49.581Z,1009.03
2018-02-19T12:05:49.635Z,1009.04
2018-02-19T12:06:49.536Z,1009.01
2018-02-19T12:07:49.598Z,1009.01
2018-02-19T12:08:49.539Z,1008.99